createdAt,value
2019-03-04T00:00:36.811Z,16.57
2019-03-04T00:03:07.931Z,16.67
2019-03-04T00:05:39.123Z,15.55
2019-03-04T00:08:11.401Z,16.62
2019-03-04T00:10:42.458Z,16.45
2019-03-04T00:13:13.553Z,14.40
2019-03-04T00:15:44.649Z,15.40
2019-03-04T00:18:15.904Z,15.32
2019-03-04T00:20:46.934Z,13.68
2019-03-04T00:23:18.026Z,14.33
2019-03-04T00:25:49.055Z,13.65
2019-03-04T00:28:20.112Z,14.00
2019-03-04T00:30:51.226Z,13.95
2019-03-04T00:33:22.304Z,14.47
2019-03-04T00:35:53.367Z,14.65
2019-03-04T00:38:24.479Z,14.50
2019-03-04T00:40:55.472Z,13.88
2019-03-04T00:43:26.511Z,14.60
2019-03-04T00:45:57.570Z,14.13
2019-03-04T00:48:29.675Z,15.65
2019-03-04T00:51:00.741Z,15.25
2019-03-04T00:53:31.868Z,15.50
2019-03-04T00:56:02.966Z,14.07
2019-03-04T00:58:34.134Z,14.63
2019-03-04T01:01:05.154Z,15.45
2019-03-04T01:03:36.238Z,14.43
2019-03-04T01:06:07.459Z,13.98
2019-03-04T01:08:38.690Z,15.53
2019-03-04T01:11:09.895Z,14.53
2019-03-04T01:13:41.908Z,15.45
2019-03-04T01:16:12.916Z,15.13
2019-03-04T01:18:44.014Z,15.38
2019-03-04T01:21:15.001Z,15.65
2019-03-04T01:23:46.098Z,15.40
2019-03-04T01:26:17.213Z,14.70
2019-03-04T01:28:48.246Z,15.58
2019-03-04T01:31:19.285Z,16.05
2019-03-04T01:33:50.324Z,15.30
2019-03-04T01:36:21.378Z,14.28
2019-03-04T01:38:52.412Z,14.13
2019-03-04T01:41:23.447Z,13.58
2019-03-04T01:43:54.864Z,13.80
2019-03-04T01:46:25.876Z,13.55
2019-03-04T01:48:56.980Z,12.68
2019-03-04T01:51:28.370Z,13.95
2019-03-04T01:53:59.481Z,14.30
2019-03-04T01:56:30.520Z,13.00
2019-03-04T01:59:01.552Z,14.10
2019-03-04T02:01:32.541Z,14.75
2019-03-04T02:04:03.528Z,14.13
2019-03-04T02:06:34.653Z,13.10
2019-03-04T02:09:07.107Z,14.95
2019-03-04T02:11:39.537Z,15.58
2019-03-04T02:14:10.681Z,14.47
2019-03-04T02:16:42.759Z,15.45
2019-03-04T02:19:15.174Z,15.65
2019-03-04T02:21:46.259Z,16.60
2019-03-04T02:24:22.668Z,15.83
2019-03-04T02:26:54.732Z,15.43
2019-03-04T02:29:26.663Z,16.02
2019-03-04T02:31:57.700Z,16.15
2019-03-04T02:34:28.743Z,16.40
2019-03-04T02:36:59.889Z,15.48
2019-03-04T02:39:30.956Z,16.73
2019-03-04T02:42:02.349Z,17.23
2019-03-04T02:44:33.315Z,17.05
2019-03-04T02:47:04.459Z,17.65
2019-03-04T02:49:35.507Z,16.50
2019-03-04T02:52:06.891Z,17.45
2019-03-04T02:54:37.894Z,17.48
2019-03-04T02:57:08.982Z,16.77
2019-03-04T02:59:40.079Z,16.90
2019-03-04T03:02:11.227Z,16.45
2019-03-04T03:04:42.439Z,17.92
2019-03-04T03:07:13.471Z,17.32
2019-03-04T03:09:44.510Z,17.98
2019-03-04T03:12:15.566Z,16.87
2019-03-04T03:14:46.630Z,17.40
2019-03-04T03:17:17.818Z,16.95
2019-03-04T03:19:48.914Z,17.87
2019-03-04T03:22:19.935Z,15.85
2019-03-04T03:24:51.003Z,18.05
2019-03-04T03:27:22.087Z,17.98
2019-03-04T03:29:53.475Z,17.42
2019-03-04T03:32:24.681Z,17.12
2019-03-04T03:34:55.787Z,18.37
2019-03-04T03:37:26.871Z,16.82
2019-03-04T03:39:57.879Z,17.48
2019-03-04T03:42:28.891Z,17.12
2019-03-04T03:45:00.365Z,17.73
2019-03-04T03:47:31.386Z,16.60
2019-03-04T03:50:02.456Z,17.05
2019-03-04T03:52:33.479Z,18.50
2019-03-04T03:55:07.533Z,18.30
2019-03-04T03:57:38.549Z,16.93
2019-03-04T04:00:20.440Z,18.00
2019-03-04T04:02:51.537Z,18.12
2019-03-04T04:05:22.607Z,15.25
2019-03-04T04:07:53.666Z,16.73
2019-03-04T04:10:24.810Z,18.07
2019-03-04T04:12:55.858Z,18.40
2019-03-04T04:15:26.995Z,17.50
2019-03-04T04:17:58.036Z,18.17
2019-03-04T04:20:29.068Z,18.90
2019-03-04T04:23:00.067Z,17.37
2019-03-04T04:25:31.438Z,20.68
2019-03-04T04:28:04.147Z,19.42
2019-03-04T04:30:36.403Z,15.30
2019-03-04T04:33:07.460Z,18.35
2019-03-04T04:35:38.445Z,19.35
2019-03-04T04:38:09.553Z,19.32
2019-03-04T04:40:40.568Z,19.98
2019-03-04T04:43:11.697Z,20.95
2019-03-04T04:45:42.842Z,19.82
2019-03-04T04:48:13.848Z,20.97
2019-03-04T04:50:45.015Z,21.23
2019-03-04T04:53:16.160Z,21.50
2019-03-04T04:55:47.242Z,20.60
2019-03-04T04:58:18.326Z,21.60
2019-03-04T05:00:49.417Z,21.65
2019-03-04T05:03:20.505Z,20.10
2019-03-04T05:05:51.619Z,21.70
2019-03-04T05:08:22.690Z,20.20
2019-03-04T05:10:53.884Z,21.25
2019-03-04T05:13:24.933Z,22.20
2019-03-04T05:15:55.983Z,22.40
2019-03-04T05:18:27.133Z,22.90
2019-03-04T05:20:58.167Z,22.07
2019-03-04T05:23:29.202Z,21.23
2019-03-04T05:26:00.239Z,22.00
2019-03-04T05:28:31.284Z,21.70
2019-03-04T05:31:02.322Z,26.23
2019-03-04T05:33:33.412Z,23.50
2019-03-04T05:36:04.585Z,21.97
2019-03-04T05:38:35.677Z,22.50
2019-03-04T05:41:06.871Z,21.80
2019-03-04T05:43:38.060Z,19.75
2019-03-04T05:46:09.100Z,20.30
2019-03-04T05:48:40.178Z,19.05
2019-03-04T05:51:11.280Z,20.05
2019-03-04T05:53:42.425Z,20.30
2019-03-04T05:56:13.406Z,19.95
2019-03-04T05:58:44.497Z,21.25
2019-03-04T06:01:27.535Z,20.23
2019-03-04T06:04:01.721Z,20.12
2019-03-04T06:06:49.598Z,23.83
2019-03-04T06:09:20.717Z,22.82
2019-03-04T06:11:51.763Z,26.35
2019-03-04T06:14:22.826Z,21.27
2019-03-04T06:16:54.038Z,29.40
2019-03-04T06:19:25.124Z,26.95
2019-03-04T06:21:56.281Z,25.52
2019-03-04T06:24:27.387Z,31.25
2019-03-04T06:26:58.417Z,31.93
2019-03-04T06:29:29.459Z,22.75
2019-03-04T06:32:00.640Z,36.85
2019-03-04T06:34:31.762Z,27.07
2019-03-04T06:37:02.862Z,21.55
2019-03-04T06:39:34.045Z,25.12
2019-03-04T06:42:05.190Z,21.95
2019-03-04T06:44:37.562Z,23.22
2019-03-04T06:47:09.736Z,21.80
2019-03-04T06:49:40.776Z,22.27
2019-03-04T06:52:11.928Z,21.77
2019-03-04T06:54:52.138Z,22.77
2019-03-04T06:57:28.382Z,23.95
2019-03-04T07:00:21.576Z,16.07
2019-03-04T07:02:52.627Z,21.93
2019-03-04T07:05:45.990Z,19.02
2019-03-04T07:08:35.466Z,17.90
2019-03-04T07:11:06.525Z,18.27
2019-03-04T07:13:37.704Z,18.12
2019-03-04T07:16:08.675Z,18.95
2019-03-04T07:18:39.914Z,20.23
2019-03-04T07:21:12.819Z,26.87
2019-03-04T07:23:43.921Z,19.20
2019-03-04T07:26:15.299Z,22.58
2019-03-04T07:28:46.501Z,27.75
2019-03-04T07:31:17.712Z,21.75
2019-03-04T07:33:48.923Z,21.00
2019-03-04T07:36:19.914Z,19.55
2019-03-04T07:38:58.152Z,21.55
2019-03-04T07:41:29.353Z,20.50
2019-03-04T07:44:00.628Z,18.80
2019-03-04T07:46:31.701Z,20.45
2019-03-04T07:49:02.995Z,20.10
2019-03-04T07:51:34.424Z,20.35
2019-03-04T07:54:05.552Z,21.40
2019-03-04T07:56:37.081Z,21.90
2019-03-04T07:59:08.328Z,20.43
2019-03-04T08:01:39.634Z,23.40
2019-03-04T08:04:10.858Z,21.10
2019-03-04T08:06:42.150Z,23.67
2019-03-04T08:09:16.718Z,25.00
2019-03-04T08:12:10.640Z,20.10
2019-03-04T08:14:42.019Z,26.68
2019-03-04T08:17:13.246Z,25.85
2019-03-04T08:19:44.218Z,21.17
2019-03-04T08:22:15.831Z,24.85
2019-03-04T08:24:46.902Z,20.55
2019-03-04T08:27:18.522Z,19.85
2019-03-04T08:29:49.739Z,20.32
2019-03-04T08:32:21.017Z,17.98
2019-03-04T08:34:52.222Z,17.75
2019-03-04T08:37:23.413Z,18.57
2019-03-04T08:39:54.612Z,23.12
2019-03-04T08:42:26.018Z,21.42
2019-03-04T08:44:57.025Z,28.83
2019-03-04T08:47:28.121Z,19.90
2019-03-04T08:49:59.165Z,17.87
2019-03-04T08:52:30.379Z,16.23
2019-03-04T08:55:01.686Z,16.95
2019-03-04T08:57:33.345Z,14.65
2019-03-04T09:00:10.685Z,16.25
2019-03-04T09:02:42.103Z,19.82
2019-03-04T09:05:13.240Z,16.45
2019-03-04T09:07:44.442Z,16.48
2019-03-04T09:10:18.356Z,17.67
2019-03-04T09:12:49.448Z,18.30
2019-03-04T09:15:20.565Z,15.78
2019-03-04T09:17:51.866Z,15.25
2019-03-04T09:20:23.084Z,15.98
2019-03-04T09:22:56.491Z,21.30
2019-03-04T09:25:47.804Z,34.25
2019-03-04T09:28:19.486Z,17.07
2019-03-04T09:30:50.623Z,53.90
2019-03-04T09:33:21.657Z,33.53
2019-03-04T09:35:52.987Z,38.42
2019-03-04T09:38:24.245Z,61.42
2019-03-04T09:40:57.232Z,23.35
2019-03-04T09:43:28.444Z,47.08
2019-03-04T09:46:00.259Z,28.55
2019-03-04T09:48:31.385Z,26.27
2019-03-04T09:51:02.778Z,18.55
2019-03-04T09:53:39.384Z,20.68
2019-03-04T09:56:06.720Z,16.12
2019-03-04T09:58:42.568Z,16.02
2019-03-04T10:01:21.591Z,18.98
2019-03-04T10:04:21.454Z,19.12
2019-03-04T10:07:01.817Z,23.27
2019-03-04T10:09:42.744Z,20.95
2019-03-04T10:12:22.630Z,31.60
2019-03-04T10:15:27.173Z,17.02
2019-03-04T10:18:18.429Z,19.60
2019-03-04T10:20:55.426Z,18.92
2019-03-04T10:23:50.848Z,19.15
2019-03-04T10:26:40.982Z,18.23
2019-03-04T10:29:15.370Z,21.52
2019-03-04T10:31:58.672Z,20.45
2019-03-04T10:34:54.816Z,23.90
2019-03-04T10:37:57.577Z,17.50
2019-03-04T10:40:48.114Z,18.57
2019-03-04T10:43:48.234Z,18.80
2019-03-04T10:46:40.955Z,18.35
2019-03-04T10:49:11.988Z,18.20
2019-03-04T10:51:43.088Z,17.23
2019-03-04T10:54:14.260Z,17.62
2019-03-04T10:56:45.332Z,20.15
2019-03-04T10:59:16.420Z,20.50
2019-03-04T11:01:49.917Z,33.30
2019-03-04T11:04:20.211Z,20.77
2019-03-04T11:06:51.245Z,19.42
2019-03-04T11:09:22.197Z,18.52
2019-03-04T11:11:53.126Z,18.55
2019-03-04T11:14:24.195Z,20.00
2019-03-04T11:16:55.127Z,21.62
2019-03-04T11:19:26.219Z,21.23
2019-03-04T11:21:57.277Z,23.92
2019-03-04T11:24:28.303Z,20.70
2019-03-04T11:27:00.506Z,25.00
2019-03-04T11:29:31.788Z,20.35
2019-03-04T11:32:03.743Z,21.70
2019-03-04T11:34:34.866Z,19.30
2019-03-04T11:37:05.825Z,19.17
2019-03-04T11:39:47.311Z,20.60
2019-03-04T11:42:18.358Z,21.48
2019-03-04T11:44:49.393Z,20.37
2019-03-04T11:47:22.218Z,20.23
2019-03-04T11:49:53.523Z,21.40
2019-03-04T11:52:24.634Z,19.25
2019-03-04T11:54:56.081Z,20.60
2019-03-04T11:57:27.128Z,19.27
2019-03-04T11:59:58.355Z,18.27
2019-03-04T12:02:38.552Z,18.62
2019-03-04T12:05:02.644Z,18.37
2019-03-04T12:07:33.733Z,19.65
2019-03-04T12:10:07.998Z,18.27
2019-03-04T12:12:39.276Z,17.90
2019-03-04T12:15:13.777Z,17.87
2019-03-04T12:17:44.989Z,18.37
2019-03-04T12:20:16.492Z,18.27
2019-03-04T12:22:47.622Z,18.17
2019-03-04T12:25:20.569Z,17.87
2019-03-04T12:27:51.488Z,19.77
2019-03-04T12:30:24.008Z,18.25
2019-03-04T12:32:55.104Z,17.42
2019-03-04T12:35:26.102Z,18.10
2019-03-04T12:37:57.086Z,19.60
2019-03-04T12:40:28.023Z,17.55
2019-03-04T12:42:59.208Z,18.42
2019-03-04T12:45:34.446Z,18.10
2019-03-04T12:48:03.161Z,18.40
2019-03-04T12:50:35.666Z,19.17
2019-03-04T12:53:06.691Z,20.52
2019-03-04T12:55:37.710Z,21.35
2019-03-04T12:58:08.853Z,18.87
2019-03-04T13:00:40.141Z,18.85
2019-03-04T13:03:17.125Z,18.25
2019-03-04T13:05:48.006Z,16.85
2019-03-04T13:08:18.870Z,17.17
2019-03-04T13:10:50.009Z,17.87
2019-03-04T13:13:21.108Z,16.42
2019-03-04T13:15:52.144Z,16.95
2019-03-04T13:18:23.094Z,17.65
2019-03-04T13:20:54.120Z,18.50
2019-03-04T13:23:25.169Z,17.05
2019-03-04T13:25:56.238Z,18.55
2019-03-04T13:28:27.234Z,18.40
2019-03-04T13:30:58.300Z,18.98
2019-03-04T13:33:29.311Z,18.75
2019-03-04T13:36:00.325Z,18.70
2019-03-04T13:38:31.395Z,19.37
2019-03-04T13:41:02.289Z,20.17
2019-03-04T13:43:33.283Z,19.15
2019-03-04T13:46:04.433Z,19.40
2019-03-04T13:48:35.461Z,20.75
2019-03-04T13:51:06.338Z,20.85
2019-03-04T13:53:37.406Z,20.48
2019-03-04T13:56:08.343Z,21.35
2019-03-04T13:58:39.513Z,21.90
2019-03-04T14:01:10.551Z,21.45
2019-03-04T14:03:41.504Z,21.17
2019-03-04T14:06:12.496Z,20.37
2019-03-04T14:08:43.589Z,20.85
2019-03-04T14:11:14.572Z,20.32
2019-03-04T14:13:45.490Z,19.37
2019-03-04T14:16:16.429Z,20.35
2019-03-04T14:18:47.418Z,20.02
2019-03-04T14:21:18.511Z,19.85
2019-03-04T14:23:49.469Z,20.48
2019-03-04T14:26:20.672Z,19.20
2019-03-04T14:28:51.990Z,19.20
2019-03-04T14:31:22.986Z,19.32
2019-03-04T14:33:54.003Z,18.98
2019-03-04T14:36:24.941Z,19.30
2019-03-04T14:38:55.951Z,19.95
2019-03-04T14:41:27.049Z,19.70
2019-03-04T14:43:58.110Z,19.62
2019-03-04T14:46:28.985Z,17.65
2019-03-04T14:49:00.931Z,19.25
2019-03-04T14:51:32.097Z,19.55
2019-03-04T14:54:03.428Z,19.32
2019-03-04T14:56:34.434Z,18.92
2019-03-04T14:59:10.955Z,17.73
2019-03-04T15:01:39.484Z,18.40
2019-03-04T15:04:10.875Z,19.35
2019-03-04T15:06:42.277Z,18.95
2019-03-04T15:09:13.829Z,20.97
2019-03-04T15:11:44.920Z,19.65
2019-03-04T15:14:15.857Z,19.23
2019-03-04T15:16:46.858Z,18.32
2019-03-04T15:19:17.873Z,18.23
2019-03-04T15:21:49.274Z,18.98
2019-03-04T15:24:21.469Z,22.75
2019-03-04T15:26:52.485Z,21.07
2019-03-04T15:29:23.946Z,29.80
2019-03-04T15:31:54.887Z,23.27
2019-03-04T15:34:28.448Z,21.45
2019-03-04T15:39:30.063Z,21.42
2019-03-04T15:42:01.124Z,20.15
2019-03-04T15:44:32.092Z,19.17
2019-03-04T15:47:03.053Z,18.42
2019-03-04T15:49:34.057Z,19.87
2019-03-04T15:52:06.787Z,20.12
2019-03-04T15:54:37.981Z,19.92
2019-03-04T15:57:11.307Z,20.40
2019-03-04T15:59:41.920Z,20.82
2019-03-04T16:02:13.101Z,21.40
2019-03-04T16:04:44.285Z,22.52
2019-03-04T16:07:15.865Z,25.35
2019-03-04T16:09:47.432Z,24.18
2019-03-04T16:12:20.056Z,25.52
2019-03-04T16:14:51.129Z,24.73
2019-03-04T16:17:22.211Z,25.43
2019-03-04T16:19:53.317Z,24.82
2019-03-04T16:22:24.343Z,23.07
2019-03-04T16:24:55.404Z,23.05
2019-03-04T16:27:26.538Z,23.57
2019-03-04T16:29:57.710Z,22.45
2019-03-04T16:32:28.857Z,23.32
2019-03-04T16:34:59.815Z,23.25
2019-03-04T16:37:31.082Z,21.62
2019-03-04T16:40:02.166Z,22.70
2019-03-04T16:42:33.304Z,23.12
2019-03-04T16:45:07.110Z,23.40
2019-03-04T16:47:38.129Z,22.60
2019-03-04T16:50:17.259Z,22.67
2019-03-04T16:52:51.666Z,25.65
2019-03-04T16:55:22.686Z,24.37
2019-03-04T16:57:53.888Z,23.77
2019-03-04T17:00:24.895Z,24.00
2019-03-04T17:02:55.990Z,22.98
2019-03-04T17:05:27.669Z,21.90
2019-03-04T17:07:59.120Z,22.32
2019-03-04T17:10:30.215Z,21.52
2019-03-04T17:13:01.255Z,22.00
2019-03-04T17:15:32.251Z,21.77
2019-03-04T17:18:03.246Z,22.00
2019-03-04T17:20:34.257Z,21.25
2019-03-04T17:23:05.636Z,20.92
2019-03-04T17:25:36.633Z,21.48
2019-03-04T17:28:07.580Z,22.05
2019-03-04T17:30:38.578Z,21.60
2019-03-04T17:33:09.550Z,22.90
2019-03-04T17:35:40.484Z,22.87
2019-03-04T17:38:11.600Z,23.12
2019-03-04T17:40:42.897Z,23.47
2019-03-04T17:43:13.921Z,24.12
2019-03-04T17:45:44.962Z,27.25
2019-03-04T17:48:16.038Z,25.43
2019-03-04T17:50:47.823Z,25.72
2019-03-04T17:53:18.741Z,34.38
2019-03-04T17:55:49.713Z,41.05
2019-03-04T17:58:20.731Z,24.77
2019-03-04T18:00:53.704Z,22.77
2019-03-04T18:03:24.697Z,21.93
2019-03-04T18:05:55.756Z,24.12
2019-03-04T18:08:26.913Z,23.40
2019-03-04T18:10:58.045Z,24.35
2019-03-04T18:13:29.145Z,23.83
2019-03-04T18:16:00.101Z,31.80
2019-03-04T18:18:31.073Z,27.32
2019-03-04T18:21:02.010Z,36.03
2019-03-04T18:23:32.990Z,33.85
2019-03-04T18:26:08.626Z,46.37
2019-03-04T18:28:58.056Z,57.90
2019-03-04T18:31:47.225Z,44.33
2019-03-04T18:34:27.353Z,44.45
2019-03-04T18:37:16.605Z,49.75
2019-03-04T18:40:03.171Z,72.17
2019-03-04T18:42:49.071Z,49.38
2019-03-04T18:45:26.340Z,64.00
2019-03-04T18:48:32.480Z,45.05
2019-03-04T18:51:03.526Z,42.23
2019-03-04T18:53:34.537Z,41.85
2019-03-04T18:56:05.601Z,36.63
2019-03-04T18:58:36.781Z,34.33
2019-03-04T19:01:08.652Z,32.80
2019-03-04T19:03:41.276Z,39.38
2019-03-04T19:06:15.151Z,38.83
2019-03-04T19:08:46.214Z,34.67
2019-03-04T19:11:17.178Z,44.90
2019-03-04T19:13:48.404Z,49.40
2019-03-04T19:16:19.645Z,56.60
2019-03-04T19:18:50.819Z,47.85
2019-03-04T19:21:21.958Z,40.30
2019-03-04T19:23:53.201Z,53.40
2019-03-04T19:26:24.385Z,44.80
2019-03-04T19:28:55.433Z,45.43
2019-03-04T19:31:26.478Z,41.95
2019-03-04T19:33:57.613Z,43.75
2019-03-04T19:36:28.817Z,36.65
2019-03-04T19:38:59.792Z,58.05
2019-03-04T19:41:30.885Z,36.48
2019-03-04T19:44:02.213Z,34.27
2019-03-04T19:46:33.273Z,49.93
2019-03-04T19:49:04.352Z,36.15
2019-03-04T19:51:35.454Z,54.77
2019-03-04T19:54:08.141Z,32.35
2019-03-04T19:56:39.099Z,31.52
2019-03-04T19:59:10.045Z,44.38
2019-03-04T20:01:41.314Z,48.55
2019-03-04T20:04:12.373Z,39.90
2019-03-04T20:06:43.576Z,35.03
2019-03-04T20:09:14.689Z,34.30
2019-03-04T20:11:46.073Z,39.08
2019-03-04T20:14:17.495Z,48.92
2019-03-04T20:16:49.696Z,49.35
2019-03-04T20:19:20.860Z,37.42
2019-03-04T20:21:52.109Z,45.85
2019-03-04T20:24:23.275Z,48.45
2019-03-04T20:26:54.438Z,42.55
2019-03-04T20:29:25.524Z,37.48
2019-03-04T20:31:56.532Z,33.80
2019-03-04T20:34:27.515Z,43.92
2019-03-04T20:36:59.718Z,31.02
2019-03-04T20:39:30.797Z,32.75
2019-03-04T20:42:01.937Z,30.95
2019-03-04T20:44:34.008Z,51.70
2019-03-04T20:47:05.080Z,55.35
2019-03-04T20:49:36.295Z,29.12
2019-03-04T20:52:07.338Z,29.85
2019-03-04T20:54:38.407Z,53.80
2019-03-04T20:57:09.552Z,41.10
2019-03-04T20:59:40.759Z,36.63
2019-03-04T21:02:11.960Z,37.33
2019-03-04T21:04:43.538Z,34.53
2019-03-04T21:07:14.719Z,42.08
2019-03-04T21:09:45.837Z,36.80
2019-03-04T21:12:18.388Z,37.23
2019-03-04T21:14:49.655Z,29.00
2019-03-04T21:17:20.609Z,40.58
2019-03-04T21:19:51.649Z,32.63
2019-03-04T21:22:22.585Z,32.50
2019-03-04T21:24:53.580Z,36.45
2019-03-04T21:27:24.694Z,29.00
2019-03-04T21:29:58.912Z,27.13
2019-03-04T21:32:33.116Z,35.65
2019-03-04T21:35:19.745Z,29.37
2019-03-04T21:37:51.113Z,25.30
2019-03-04T21:40:28.377Z,27.80
2019-03-04T21:43:11.356Z,31.37
2019-03-04T21:46:05.606Z,25.92
2019-03-04T21:48:39.906Z,31.17
2019-03-04T21:51:23.132Z,34.35
2019-03-04T21:53:54.263Z,36.48
2019-03-04T21:56:51.190Z,29.35
2019-03-04T21:59:23.132Z,28.90
2019-03-04T22:02:00.201Z,26.48
2019-03-04T22:04:31.373Z,26.42
2019-03-04T22:07:02.302Z,27.85
2019-03-04T22:09:33.376Z,30.52
2019-03-04T22:12:06.244Z,28.70
2019-03-04T22:14:37.380Z,29.63
2019-03-04T22:17:09.334Z,26.68
2019-03-04T22:19:40.289Z,29.07
2019-03-04T22:22:11.274Z,26.15
2019-03-04T22:24:42.595Z,26.02
2019-03-04T22:27:13.660Z,28.45
2019-03-04T22:29:44.709Z,28.73
2019-03-04T22:32:15.655Z,27.77
2019-03-04T22:34:46.685Z,27.42
2019-03-04T22:37:17.736Z,29.65
2019-03-04T22:39:48.772Z,26.85
2019-03-04T22:42:19.709Z,25.02
2019-03-04T22:44:50.655Z,27.20
2019-03-04T22:47:21.707Z,29.50
2019-03-04T22:49:52.805Z,25.70
2019-03-04T22:52:23.764Z,27.42
2019-03-04T22:54:54.685Z,29.20
2019-03-04T22:57:25.648Z,25.97
2019-03-04T22:59:56.597Z,25.00
2019-03-04T23:02:28.023Z,27.32
2019-03-04T23:04:58.974Z,25.90
2019-03-04T23:07:29.926Z,26.90
2019-03-04T23:10:00.908Z,27.55
2019-03-04T23:12:39.248Z,27.32
2019-03-04T23:15:22.497Z,28.12
2019-03-04T23:17:53.514Z,29.65
2019-03-04T23:20:24.482Z,28.42
2019-03-04T23:22:55.411Z,30.05
2019-03-04T23:25:26.317Z,46.73
2019-03-04T23:27:57.254Z,53.17
2019-03-04T23:30:28.353Z,46.77
2019-03-04T23:32:59.227Z,33.78
2019-03-04T23:35:30.266Z,33.45
2019-03-04T23:38:01.262Z,31.33
2019-03-04T23:40:32.334Z,27.05
2019-03-04T23:43:03.197Z,28.42
2019-03-04T23:45:34.217Z,30.75
2019-03-04T23:48:05.452Z,31.95
2019-03-04T23:50:36.415Z,31.12
2019-03-04T23:53:07.410Z,38.20
2019-03-04T23:55:38.398Z,29.12
2019-03-04T23:58:09.388Z,27.85
